X  CloseMetar Aviation Weather Data     YMAV Avalon

Temperature

14°C Temperature

9°C Dewpoint

72% Humidity



Wind

29 KM/H

18 MPH

 8 M/S

16 KTS



290°
West North
West
Current Conditions

Overcast Overcast
Pressure 1010.92 (hPa) - 29.85 (in)
Visibility 6.2 (mi) - 10 (km)
Airport
Airport-code YMAV

Location Avalon 24 (km)

Metar:
YMAV 142200Z AUTO 29016KT 9999 // OVC024 14/09 Q1011

Time: 15-11-2019 09:00